Time,TemperatureF,DewpointF,PressureIn,WindDirection,WindDirectionDegrees,WindSpeedMPH,WindSpeedGustMPH,Humidity,HourlyPrecipIn,Conditions,Clouds,dailyrainin,SoftwareType,DateUTC
2013-09-24 00:11:00,58.3,58.0,29.75,SE,135,4.0,8.0,97,0.00,,,0.00,weatherlink.com 1.10,2013-09-23 23:11:00,
2013-09-24 00:26:00,58.2,57.0,29.75,SSE,148,0.0,8.0,97,0.00,,,0.00,weatherlink.com 1.10,2013-09-23 23:26:00,
2013-09-24 00:41:00,58.0,57.0,29.75,SSE,162,7.0,9.0,97,0.00,,,0.00,weatherlink.com 1.10,2013-09-23 23:41:00,
2013-09-24 00:56:00,57.8,57.0,29.75,SE,141,6.0,9.0,97,0.00,,,0.00,weatherlink.com 1.10,2013-09-23 23:56:00,
2013-09-24 01:11:00,57.6,57.0,29.75,SE,141,5.0,8.0,97,0.00,,,0.00,weatherlink.com 1.10,2013-09-24 00:11:00,
2013-09-24 01:26:00,57.2,56.0,29.74,SSE,148,6.0,8.0,97,0.00,,,0.00,weatherlink.com 1.10,2013-09-24 00:26:00,
2013-09-24 01:41:00,57.0,56.0,29.74,SSE,148,4.0,8.0,97,0.00,,,0.00,weatherlink.com 1.10,2013-09-24 00:41:00,
2013-09-24 01:56:00,57.0,57.0,29.74,East,93,5.0,7.0,98,0.00,,,0.00,weatherlink.com 1.10,2013-09-24 00:56:00,
2013-09-24 02:11:00,56.6,56.0,29.73,SE,136,3.0,5.0,98,0.00,,,0.00,weatherlink.com 1.10,2013-09-24 01:11:00,
2013-09-24 02:26:00,56.4,56.0,29.73,SE,144,4.0,9.0,98,0.00,,,0.00,weatherlink.com 1.10,2013-09-24 01:26:00,
2013-09-24 02:41:00,56.3,56.0,29.72,SE,126,5.0,9.0,98,0.00,,,0.00,weatherlink.com 1.10,2013-09-24 01:41:00,
2013-09-24 02:56:00,56.3,56.0,29.72,ESE,117,5.0,7.0,98,0.00,,,0.00,weatherlink.com 1.10,2013-09-24 01:56:00,
2013-09-24 03:11:00,56.3,56.0,29.72,ESE,111,3.0,8.0,98,0.00,,,0.00,weatherlink.com 1.10,2013-09-24 02:11:00,
2013-09-24 03:26:00,56.4,56.0,29.72,ESE,103,3.0,7.0,98,0.00,,,0.00,weatherlink.com 1.10,2013-09-24 02:26:00,
2013-09-24 03:41:00,56.5,56.0,29.71,ESE,114,3.0,6.0,98,0.00,,,0.00,weatherlink.com 1.10,2013-09-24 02:41:00,
2013-09-24 03:56:00,56.3,56.0,29.71,ESE,109,2.0,7.0,98,0.00,,,0.00,weatherlink.com 1.10,2013-09-24 02:56:00,
2013-09-24 04:11:00,56.2,56.0,29.70,SE,137,3.0,8.0,98,0.00,,,0.00,weatherlink.com 1.10,2013-09-24 03:11:00,
2013-09-24 04:26:00,56.2,56.0,29.70,SE,125,0.0,3.0,98,0.00,,,0.00,weatherlink.com 1.10,2013-09-24 03:26:00,
2013-09-24 04:41:00,56.3,56.0,29.70,ESE,122,2.0,3.0,98,0.00,,,0.00,weatherlink.com 1.10,2013-09-24 03:41:00,
2013-09-24 04:56:00,56.2,56.0,29.69,SSE,148,4.0,7.0,98,0.00,,,0.00,weatherlink.com 1.10,2013-09-24 03:56:00,
2013-09-24 05:11:00,56.2,56.0,29.69,SE,135,2.0,3.0,98,0.00,,,0.00,weatherlink.com 1.10,2013-09-24 04:11:00,
2013-09-24 05:26:00,55.3,55.0,29.68,ESE,120,4.0,5.0,100,0.00,,,0.00,weatherlink.com 1.10,2013-09-24 04:26:00,
2013-09-24 05:41:00,-999.0,-99.9,29.68,North,-999,-999.0,-999.0,-999,0.00,,,0.00,weatherlink.com 1.10,2013-09-24 04:41:00,
2013-09-24 05:57:00,-999.0,-99.9,29.68,North,-999,-999.0,-999.0,-999,0.00,,,0.00,weatherlink.com 1.10,2013-09-24 04:57:00,
2013-09-24 06:12:00,-999.0,-99.9,29.67,North,-999,-999.0,-999.0,-999,0.00,,,0.00,weatherlink.com 1.10,2013-09-24 05:12:00,
2013-09-24 06:27:00,-999.0,-99.9,29.67,North,-999,-999.0,-999.0,-999,0.00,,,0.00,weatherlink.com 1.10,2013-09-24 05:27:00,
2013-09-24 06:42:00,-999.0,-99.9,29.66,North,-999,-999.0,-999.0,-999,0.00,,,0.00,weatherlink.com 1.10,2013-09-24 05:42:00,
2013-09-24 06:57:00,-999.0,-99.9,29.66,North,-999,-999.0,-999.0,-999,0.00,,,0.00,weatherlink.com 1.10,2013-09-24 05:57:00,
2013-09-24 07:12:00,-999.0,-99.9,29.65,North,-999,-999.0,-999.0,-999,0.00,,,0.00,weatherlink.com 1.10,2013-09-24 06:12:00,
2013-09-24 07:27:00,-999.0,-99.9,29.66,North,-999,-999.0,-999.0,-999,0.00,,,0.00,weatherlink.com 1.10,2013-09-24 06:27:00,
2013-09-24 07:42:00,-999.0,-99.9,29.66,North,-999,-999.0,-999.0,-999,0.00,,,0.00,weatherlink.com 1.10,2013-09-24 06:42:00,
2013-09-24 07:57:00,-999.0,-99.9,29.67,North,-999,-999.0,-999.0,-999,0.00,,,0.00,weatherlink.com 1.10,2013-09-24 06:57:00,
2013-09-24 08:12:00,-999.0,-99.9,29.67,North,-999,-999.0,-999.0,-999,0.00,,,0.00,weatherlink.com 1.10,2013-09-24 07:12:00,
2013-09-24 08:27:00,56.1,56.0,29.67,SE,136,0.0,1.0,98,0.00,,,0.00,weatherlink.com 1.10,2013-09-24 07:27:00,
2013-09-24 08:42:00,56.3,56.0,29.67,NE,44,0.0,2.0,98,0.00,,,0.00,weatherlink.com 1.10,2013-09-24 07:42:00,
2013-09-24 08:57:00,56.3,56.0,29.67,NNE,27,0.0,3.0,98,0.00,,,0.00,weatherlink.com 1.10,2013-09-24 07:57:00,
2013-09-24 09:12:00,56.5,56.0,29.66,East,89,0.0,1.0,98,0.00,,,0.00,weatherlink.com 1.10,2013-09-24 08:12:00,
2013-09-24 09:27:00,56.6,56.0,29.67,NNW,342,0.0,3.0,98,0.00,,,0.00,weatherlink.com 1.10,2013-09-24 08:27:00,
2013-09-24 09:42:00,56.7,56.0,29.67,East,86,0.0,3.0,98,0.00,,,0.00,weatherlink.com 1.10,2013-09-24 08:42:00,
2013-09-24 09:57:00,56.7,56.0,29.67,SE,135,2.0,3.0,98,0.00,,,0.00,weatherlink.com 1.10,2013-09-24 08:57:00,
2013-09-24 10:12:00,56.8,56.0,29.67,SE,139,2.0,3.0,98,0.00,,,0.00,weatherlink.com 1.10,2013-09-24 09:12:00,
2013-09-24 10:27:00,56.8,56.0,29.67,SE,145,0.0,3.0,98,0.00,,,0.00,weatherlink.com 1.10,2013-09-24 09:27:00,
2013-09-24 10:42:00,57.4,57.0,29.67,ESE,120,2.0,5.0,98,0.00,,,0.00,weatherlink.com 1.10,2013-09-24 09:42:00,
2013-09-24 10:57:00,57.8,57.0,29.67,ESE,109,0.0,3.0,97,0.00,,,0.00,weatherlink.com 1.10,2013-09-24 09:57:00,
2013-09-24 11:27:00,59.1,57.0,29.67,SE,134,0.0,4.0,93,0.00,,,0.00,weatherlink.com 1.10,2013-09-24 10:27:00,
2013-09-24 11:42:00,59.7,57.0,29.66,SE,141,2.0,4.0,91,0.00,,,0.00,weatherlink.com 1.10,2013-09-24 10:42:00,
2013-09-24 11:57:00,59.7,58.0,29.66,ESE,110,1.0,6.0,93,0.00,,,0.00,weatherlink.com 1.10,2013-09-24 10:57:00,
2013-09-24 12:12:00,60.1,58.0,29.65,ESE,122,2.0,4.0,92,0.00,,,0.00,weatherlink.com 1.10,2013-09-24 11:12:00,
2013-09-24 12:28:00,60.7,58.0,29.65,SSE,162,3.0,5.0,91,0.00,,,0.00,weatherlink.com 1.10,2013-09-24 11:28:00,
2013-09-24 12:43:00,61.5,59.0,29.65,SE,145,3.0,5.0,90,0.00,,,0.00,weatherlink.com 1.10,2013-09-24 11:43:00,
2013-09-24 12:58:00,62.4,59.0,29.65,SE,128,0.0,6.0,89,0.00,,,0.00,weatherlink.com 1.10,2013-09-24 11:58:00,
2013-09-24 13:13:00,63.4,60.0,29.65,SE,129,5.0,6.0,87,0.00,,,0.00,weatherlink.com 1.10,2013-09-24 12:13:00,
2013-09-24 13:28:00,63.8,60.0,29.65,East,98,0.0,5.0,87,0.00,,,0.00,weatherlink.com 1.10,2013-09-24 12:28:00,
2013-09-24 13:43:00,64.5,60.0,29.65,NE,44,1.0,5.0,86,0.00,,,0.00,weatherlink.com 1.10,2013-09-24 12:43:00,
2013-09-24 13:58:00,66.2,61.0,29.65,NNE,16,3.0,3.0,84,0.00,,,0.00,weatherlink.com 1.10,2013-09-24 12:58:00,
2013-09-24 14:13:00,66.3,61.0,29.64,North,358,3.0,7.0,83,0.00,,,0.00,weatherlink.com 1.10,2013-09-24 13:13:00,
2013-09-24 14:28:00,67.0,61.0,29.64,NNE,27,3.0,4.0,81,0.00,,,0.00,weatherlink.com 1.10,2013-09-24 13:28:00,
2013-09-24 14:43:00,66.3,61.0,29.64,ESE,103,2.0,7.0,82,0.00,,,0.00,weatherlink.com 1.10,2013-09-24 13:43:00,
2013-09-24 14:58:00,65.0,60.0,29.63,East,96,5.0,9.0,83,0.00,,,0.00,weatherlink.com 1.10,2013-09-24 13:58:00,
2013-09-24 15:13:00,63.8,60.0,29.63,ESE,102,2.0,8.0,86,0.00,,,0.00,weatherlink.com 1.10,2013-09-24 14:13:00,
2013-09-24 15:28:00,62.6,59.0,29.63,East,95,1.0,8.0,87,0.00,,,0.00,weatherlink.com 1.10,2013-09-24 14:28:00,
2013-09-24 15:43:00,63.0,59.0,29.63,East,98,1.0,6.0,87,0.00,,,0.00,weatherlink.com 1.10,2013-09-24 14:43:00,
2013-09-24 15:58:00,63.4,60.0,29.62,East,91,5.0,5.0,87,0.00,,,0.00,weatherlink.com 1.10,2013-09-24 14:58:00,
2013-09-24 16:13:00,63.2,59.0,29.62,ENE,60,2.0,6.0,87,0.00,,,0.00,weatherlink.com 1.10,2013-09-24 15:13:00,
2013-09-24 16:28:00,62.9,59.0,29.61,ESE,122,4.0,6.0,87,0.00,,,0.00,weatherlink.com 1.10,2013-09-24 15:28:00,
2013-09-24 16:43:00,61.5,58.0,29.61,East,98,3.0,7.0,89,0.00,,,0.00,weatherlink.com 1.10,2013-09-24 15:43:00,
2013-09-24 16:58:00,60.7,58.0,29.61,ESE,112,4.0,8.0,90,0.00,,,0.00,weatherlink.com 1.10,2013-09-24 15:58:00,
2013-09-24 17:13:00,60.1,58.0,29.60,ESE,105,8.0,8.0,91,0.00,,,0.00,weatherlink.com 1.10,2013-09-24 16:13:00,
2013-09-24 17:28:00,59.6,57.0,29.61,SE,146,4.0,7.0,92,0.00,,,0.00,weatherlink.com 1.10,2013-09-24 16:28:00,
2013-09-24 17:43:00,59.2,57.0,29.61,East,86,2.0,7.0,93,0.00,,,0.00,weatherlink.com 1.10,2013-09-24 16:43:00,
2013-09-24 17:58:00,58.9,57.0,29.61,East,98,2.0,8.0,93,0.00,,,0.00,weatherlink.com 1.10,2013-09-24 16:58:00,
2013-09-24 18:13:00,58.8,57.0,29.61,SE,126,4.0,7.0,93,0.00,,,0.00,weatherlink.com 1.10,2013-09-24 17:13:00,
2013-09-24 18:28:00,58.6,57.0,29.62,ESE,111,3.0,6.0,94,0.00,,,0.00,weatherlink.com 1.10,2013-09-24 17:28:00,
2013-09-24 18:43:00,58.3,57.0,29.62,ESE,114,5.0,7.0,94,0.00,,,0.00,weatherlink.com 1.10,2013-09-24 17:43:00,
2013-09-24 18:58:00,58.0,57.0,29.63,East,84,2.0,5.0,95,0.00,,,0.00,weatherlink.com 1.10,2013-09-24 17:58:00,
2013-09-24 19:13:00,57.8,56.0,29.63,ESE,107,1.0,4.0,95,0.00,,,0.00,weatherlink.com 1.10,2013-09-24 18:13:00,
2013-09-24 19:28:00,57.6,57.0,29.63,SE,134,2.0,5.0,96,0.00,,,0.00,weatherlink.com 1.10,2013-09-24 18:28:00,
2013-09-24 19:43:00,57.4,56.0,29.63,East,96,0.0,2.0,96,0.00,,,0.00,weatherlink.com 1.10,2013-09-24 18:43:00,
2013-09-24 19:58:00,57.5,56.0,29.63,East,100,0.0,2.0,96,0.00,,,0.00,weatherlink.com 1.10,2013-09-24 18:58:00,
2013-09-24 20:13:00,57.5,56.0,29.63,East,84,0.0,1.0,96,0.00,,,0.00,weatherlink.com 1.10,2013-09-24 19:13:00,
2013-09-24 20:28:00,57.5,56.0,29.63,ENE,71,0.0,2.0,96,0.00,,,0.00,weatherlink.com 1.10,2013-09-24 19:28:00,
2013-09-24 20:43:00,57.6,57.0,29.63,ESE,102,1.0,2.0,97,0.00,,,0.00,weatherlink.com 1.10,2013-09-24 19:43:00,
2013-09-24 20:58:00,57.5,57.0,29.63,ESE,111,1.0,3.0,97,0.00,,,0.00,weatherlink.com 1.10,2013-09-24 19:58:00,
2013-09-24 21:13:00,57.4,57.0,29.62,East,101,1.0,2.0,97,0.00,,,0.00,weatherlink.com 1.10,2013-09-24 20:13:00,
2013-09-24 21:28:00,57.6,57.0,29.63,SE,129,0.0,0.0,97,0.00,,,0.00,weatherlink.com 1.10,2013-09-24 20:28:00,
2013-09-24 21:43:00,57.5,57.0,29.63,SE,133,1.0,2.0,97,0.00,,,0.00,weatherlink.com 1.10,2013-09-24 20:43:00,
2013-09-24 21:58:00,57.7,57.0,29.63,SSE,159,2.0,2.0,97,0.00,,,0.00,weatherlink.com 1.10,2013-09-24 20:58:00,
2013-09-24 22:13:00,57.6,57.0,29.63,ESE,117,1.0,3.0,97,0.00,,,0.00,weatherlink.com 1.10,2013-09-24 21:13:00,
2013-09-24 22:28:00,57.6,57.0,29.62,East,89,0.0,2.0,97,0.00,,,0.00,weatherlink.com 1.10,2013-09-24 21:28:00,
2013-09-24 22:43:00,57.6,57.0,29.62,East,96,2.0,2.0,97,0.00,,,0.00,weatherlink.com 1.10,2013-09-24 21:43:00,
2013-09-24 22:58:00,57.5,57.0,29.61,ESE,111,2.0,4.0,97,0.01,,,0.01,weatherlink.com 1.10,2013-09-24 21:58:00,
2013-09-24 23:14:00,57.4,57.0,29.61,East,88,0.0,2.0,98,0.01,,,0.01,weatherlink.com 1.10,2013-09-24 22:14:00,
2013-09-24 23:29:00,57.3,57.0,29.61,ESE,122,0.0,2.0,98,0.01,,,0.01,weatherlink.com 1.10,2013-09-24 22:29:00,
2013-09-24 23:44:00,57.2,57.0,29.61,ENE,66,1.0,2.0,98,0.01,,,0.01,weatherlink.com 1.10,2013-09-24 22:44:00,
2013-09-24 23:59:00,57.2,57.0,29.61,ESE,111,2.0,2.0,98,0.00,,,0.01,weatherlink.com 1.10,2013-09-24 22:59:00,